createdAt,value
2022-08-07T00:00:20.586Z,24.01
2022-08-07T00:02:50.690Z,23.79
2022-08-07T00:05:23.876Z,23.43
2022-08-07T00:07:59.610Z,23.35
2022-08-07T00:10:32.139Z,23.78
2022-08-07T00:13:23.580Z,23.90
2022-08-07T00:15:52.572Z,24.29
2022-08-07T00:18:25.314Z,23.98
2022-08-07T00:21:01.429Z,24.42
2022-08-07T00:23:34.268Z,24.28
2022-08-07T00:26:18.777Z,24.10
2022-08-07T00:29:18.513Z,24.15
2022-08-07T00:31:53.677Z,23.79
2022-08-07T00:34:30.481Z,24.47
2022-08-07T00:37:05.003Z,24.26
2022-08-07T00:39:44.896Z,24.18
2022-08-07T00:42:12.834Z,24.72
2022-08-07T00:44:44.097Z,24.86
2022-08-07T00:47:16.096Z,24.73
2022-08-07T00:50:21.216Z,24.41
2022-08-07T00:52:58.937Z,24.75
2022-08-07T00:56:02.383Z,24.76
2022-08-07T00:58:19.273Z,25.13
2022-08-07T01:00:54.307Z,24.55
2022-08-07T01:03:55.830Z,24.24
2022-08-07T01:06:18.958Z,24.64
2022-08-07T01:08:53.379Z,24.67
2022-08-07T01:12:23.335Z,24.42
2022-08-07T01:14:11.026Z,24.17
2022-08-07T01:16:42.935Z,24.28
2022-08-07T01:19:19.251Z,24.52
2022-08-07T01:21:53.307Z,24.24
2022-08-07T01:24:22.568Z,24.47
2022-08-07T01:26:51.937Z,24.88
2022-08-07T01:29:31.519Z,24.72
2022-08-07T01:32:12.334Z,24.74
2022-08-07T01:34:47.286Z,24.84
2022-08-07T01:37:20.845Z,25.16
2022-08-07T01:39:54.209Z,24.83
2022-08-07T01:42:57.540Z,24.84
2022-08-07T01:45:37.142Z,24.88
2022-08-07T01:48:17.869Z,24.68
2022-08-07T01:51:39.261Z,24.92
2022-08-07T01:54:11.803Z,24.94
2022-08-07T01:56:58.909Z,24.63
2022-08-07T01:59:55.494Z,24.10
2022-08-07T02:03:18.232Z,24.28
2022-08-07T02:05:43.263Z,24.30
2022-08-07T02:08:23.843Z,24.58
2022-08-07T02:10:57.945Z,24.62
2022-08-07T02:13:56.766Z,24.14
2022-08-07T02:16:33.327Z,24.61
2022-08-07T02:20:05.551Z,24.36
2022-08-07T02:22:00.861Z,24.09
2022-08-07T02:24:30.586Z,23.97
2022-08-07T02:27:02.654Z,24.16
2022-08-07T02:29:32.208Z,24.10
2022-08-07T02:32:04.317Z,24.43
2022-08-07T02:34:32.659Z,24.08
2022-08-07T02:37:08.894Z,24.00
2022-08-07T02:40:02.247Z,24.08
2022-08-07T02:42:32.709Z,24.27
2022-08-07T02:45:07.292Z,24.18
2022-08-07T02:47:59.177Z,24.49
2022-08-07T02:50:34.219Z,24.23
2022-08-07T02:53:07.679Z,23.76
2022-08-07T02:56:03.662Z,24.20
2022-08-07T02:58:35.491Z,24.55
2022-08-07T03:01:19.134Z,24.26
2022-08-07T03:04:03.525Z,24.03
2022-08-07T03:06:37.134Z,24.50
2022-08-07T03:09:43.527Z,24.42
2022-08-07T03:12:08.078Z,24.79
2022-08-07T03:14:51.987Z,24.12
2022-08-07T03:17:25.377Z,24.60
2022-08-07T03:19:54.689Z,24.38
2022-08-07T03:22:29.527Z,23.97
2022-08-07T03:25:00.262Z,24.45
2022-08-07T03:28:09.382Z,24.52
2022-08-07T03:30:24.317Z,24.56
2022-08-07T03:32:58.256Z,24.01
2022-08-07T03:35:38.154Z,24.19
2022-08-07T03:38:21.438Z,24.41
2022-08-07T03:41:02.338Z,24.18
2022-08-07T03:43:36.041Z,24.55
2022-08-07T03:46:10.387Z,24.51
2022-08-07T03:49:03.020Z,24.96
2022-08-07T03:51:47.168Z,24.66
2022-08-07T03:54:35.507Z,25.02
2022-08-07T03:57:07.883Z,24.83
2022-08-07T03:59:36.562Z,24.59
2022-08-07T04:02:18.353Z,24.31
2022-08-07T04:04:49.834Z,24.65
2022-08-07T04:07:19.029Z,24.52
2022-08-07T04:09:53.638Z,23.86
2022-08-07T04:12:27.030Z,24.63
2022-08-07T04:14:57.958Z,24.46
2022-08-07T04:18:11.234Z,24.43
2022-08-07T04:20:16.749Z,24.68
2022-08-07T04:23:01.894Z,24.91
2022-08-07T04:25:39.409Z,24.58
2022-08-07T04:28:10.423Z,24.74
2022-08-07T04:30:55.491Z,24.37
2022-08-07T04:33:26.379Z,24.38
2022-08-07T04:35:59.544Z,24.30
2022-08-07T04:38:29.528Z,24.04
2022-08-07T04:40:57.493Z,23.85
2022-08-07T04:44:12.023Z,24.61
2022-08-07T04:46:34.626Z,24.56
2022-08-07T04:49:25.628Z,24.44
2022-08-07T04:52:03.595Z,24.61
2022-08-07T04:54:43.656Z,24.26
2022-08-07T04:58:16.753Z,24.28
2022-08-07T05:00:30.100Z,24.01
2022-08-07T05:03:17.010Z,24.05
2022-08-07T05:05:58.861Z,24.19
2022-08-07T05:09:01.230Z,24.42
2022-08-07T05:11:57.203Z,24.68
2022-08-07T05:14:53.824Z,24.28
2022-08-07T05:17:52.179Z,24.59
2022-08-07T05:20:25.636Z,24.74
2022-08-07T05:23:00.178Z,24.55
2022-08-07T05:26:10.182Z,24.37
2022-08-07T05:28:26.608Z,24.69
2022-08-07T05:30:58.672Z,25.04
2022-08-07T05:33:28.710Z,25.15
2022-08-07T05:36:00.590Z,24.36
2022-08-07T05:39:00.908Z,25.12
2022-08-07T05:41:21.697Z,25.21
2022-08-07T05:44:08.283Z,25.10
2022-08-07T05:46:41.163Z,24.93
2022-08-07T05:49:15.006Z,25.14
2022-08-07T05:51:51.005Z,24.64
2022-08-07T05:54:30.717Z,25.25
2022-08-07T05:57:04.350Z,25.31
2022-08-07T05:59:38.964Z,25.44
2022-08-07T06:02:28.865Z,25.61
2022-08-07T06:05:05.900Z,25.68
2022-08-07T06:08:09.275Z,25.82
2022-08-07T06:10:28.922Z,25.90
2022-08-07T06:13:02.073Z,25.96
2022-08-07T06:15:42.152Z,25.93
2022-08-07T06:18:14.012Z,25.95
2022-08-07T06:20:49.749Z,26.07
2022-08-07T06:24:37.008Z,25.94
2022-08-07T06:26:27.585Z,25.87
2022-08-07T06:29:01.119Z,26.14
2022-08-07T06:31:46.743Z,26.02
2022-08-07T06:34:19.456Z,26.07
2022-08-07T06:36:52.194Z,26.16
2022-08-07T06:40:18.023Z,26.28
2022-08-07T06:42:19.267Z,26.31
2022-08-07T06:44:54.321Z,26.41
2022-08-07T06:47:25.084Z,26.32
2022-08-07T06:49:58.973Z,26.37
2022-08-07T06:52:35.610Z,26.34
2022-08-07T06:55:34.298Z,26.52
2022-08-07T06:58:10.194Z,26.58
2022-08-07T07:00:42.471Z,26.58
2022-08-07T07:03:26.413Z,26.60
2022-08-07T07:06:10.984Z,26.43
2022-08-07T07:08:39.833Z,26.55
2022-08-07T07:12:08.894Z,26.71
2022-08-07T07:14:09.834Z,26.69
2022-08-07T07:16:49.819Z,26.73
2022-08-07T07:19:56.374Z,26.87
2022-08-07T07:22:36.138Z,26.94
2022-08-07T07:26:30.844Z,27.01
2022-08-07T07:28:29.830Z,27.04
2022-08-07T07:31:17.119Z,27.17
2022-08-07T07:33:56.933Z,27.24
2022-08-07T07:36:29.631Z,27.32
2022-08-07T07:39:04.601Z,27.29
2022-08-07T07:41:50.675Z,27.33
2022-08-07T07:44:25.780Z,27.32
2022-08-07T07:47:04.398Z,27.52
2022-08-07T07:50:33.277Z,27.52
2022-08-07T07:52:32.673Z,27.73
2022-08-07T07:55:01.217Z,27.79
2022-08-07T07:57:43.748Z,27.79
2022-08-07T08:00:29.723Z,27.89
2022-08-07T08:03:08.011Z,27.97
2022-08-07T08:05:50.807Z,28.08
2022-08-07T08:08:34.372Z,27.98
2022-08-07T08:11:13.535Z,28.05
2022-08-07T08:13:53.802Z,28.27
2022-08-07T08:16:29.875Z,28.06
2022-08-07T08:19:09.957Z,27.82
2022-08-07T08:22:10.622Z,27.84
2022-08-07T08:25:24.951Z,27.84
2022-08-07T08:27:57.154Z,27.93
2022-08-07T08:30:29.904Z,28.29
2022-08-07T08:33:03.259Z,28.27
2022-08-07T08:35:39.286Z,28.40
2022-08-07T08:38:21.474Z,28.22
2022-08-07T08:41:02.984Z,28.46
2022-08-07T08:43:42.443Z,28.06
2022-08-07T08:46:49.186Z,28.29
2022-08-07T08:49:33.548Z,28.29
2022-08-07T08:52:32.355Z,27.80
2022-08-07T08:55:53.829Z,28.25
2022-08-07T08:58:32.024Z,28.53
2022-08-07T09:01:24.259Z,28.31
2022-08-07T09:04:33.134Z,28.77
2022-08-07T09:07:25.354Z,29.06
2022-08-07T09:10:03.161Z,28.71
2022-08-07T09:12:53.348Z,28.61
2022-08-07T09:16:24.389Z,28.68
2022-08-07T09:19:00.508Z,28.61
2022-08-07T09:22:10.294Z,28.67
2022-08-07T09:24:56.071Z,28.90
2022-08-07T09:27:54.930Z,29.21
2022-08-07T09:31:04.169Z,29.36
2022-08-07T09:34:15.931Z,29.04
2022-08-07T09:36:46.832Z,29.28
2022-08-07T09:39:55.594Z,29.43
2022-08-07T09:42:24.871Z,29.45
2022-08-07T09:47:26.194Z,29.49
2022-08-07T09:48:20.378Z,29.46
2022-08-07T09:51:26.089Z,29.43
2022-08-07T09:54:03.409Z,29.90
2022-08-07T09:56:50.507Z,29.63
2022-08-07T10:00:00.816Z,29.68
2022-08-07T10:02:57.197Z,29.66
2022-08-07T10:06:00.108Z,29.96
2022-08-07T10:08:52.607Z,29.67
2022-08-07T10:12:03.336Z,29.65
2022-08-07T10:15:24.131Z,29.85
2022-08-07T10:18:18.218Z,29.93
2022-08-07T10:21:19.785Z,30.12
2022-08-07T10:24:27.099Z,29.83
2022-08-07T10:27:25.574Z,30.23
2022-08-07T10:30:12.415Z,30.30
2022-08-07T10:33:04.785Z,30.23
2022-08-07T10:36:14.618Z,29.75
2022-08-07T10:38:53.228Z,30.04
2022-08-07T10:41:51.697Z,29.78
2022-08-07T10:44:54.583Z,29.64
2022-08-07T10:47:52.949Z,29.89
2022-08-07T10:50:25.657Z,29.56
2022-08-07T10:53:09.221Z,29.19
2022-08-07T10:55:53.530Z,29.64
2022-08-07T10:58:47.666Z,29.96
2022-08-07T11:01:52.038Z,30.21
2022-08-07T11:04:34.607Z,30.45
2022-08-07T11:07:58.319Z,30.23
2022-08-07T11:10:52.309Z,29.96
2022-08-07T11:14:46.135Z,30.35
2022-08-07T11:16:29.963Z,30.84
2022-08-07T11:19:06.917Z,30.56
2022-08-07T11:21:44.818Z,30.85
2022-08-07T11:24:28.912Z,30.88
2022-08-07T11:27:20.976Z,31.23
2022-08-07T11:30:19.045Z,31.21
2022-08-07T11:33:07.936Z,31.73
2022-08-07T11:35:59.707Z,31.30
2022-08-07T11:38:50.676Z,31.51
2022-08-07T11:42:00.011Z,30.93
2022-08-07T11:44:25.208Z,31.48
2022-08-07T11:46:59.120Z,31.47
2022-08-07T11:50:30.162Z,31.77
2022-08-07T11:53:05.181Z,31.62
2022-08-07T11:56:09.114Z,32.05
2022-08-07T11:58:38.257Z,31.91
2022-08-07T12:01:59.963Z,31.99
2022-08-07T12:04:46.348Z,31.87
2022-08-07T12:07:27.311Z,31.78
2022-08-07T12:10:05.907Z,31.97
2022-08-07T12:12:45.711Z,31.42
2022-08-07T12:15:35.619Z,32.11
2022-08-07T12:18:16.121Z,32.02
2022-08-07T12:22:35.896Z,32.40
2022-08-07T12:25:08.043Z,32.47
2022-08-07T12:28:08.811Z,32.20
2022-08-07T12:30:32.571Z,31.77
2022-08-07T12:33:18.711Z,32.34
2022-08-07T12:35:58.022Z,32.38
2022-08-07T12:38:29.618Z,31.98
2022-08-07T12:41:09.868Z,31.91
2022-08-07T12:44:02.194Z,31.81
2022-08-07T12:46:36.817Z,31.89
2022-08-07T12:49:39.431Z,31.96
2022-08-07T12:52:18.185Z,32.08
2022-08-07T12:55:05.152Z,31.17
2022-08-07T12:57:59.374Z,31.36
2022-08-07T13:00:31.226Z,31.64
2022-08-07T13:03:56.140Z,31.90
2022-08-07T13:07:00.036Z,32.30
2022-08-07T13:10:19.994Z,32.06
2022-08-07T13:13:48.097Z,32.18
2022-08-07T13:16:12.171Z,31.97
2022-08-07T13:18:51.422Z,32.25
2022-08-07T13:21:50.393Z,32.39
2022-08-07T13:24:30.436Z,31.14
2022-08-07T13:27:06.579Z,32.00
2022-08-07T13:29:42.460Z,32.31
2022-08-07T13:32:39.905Z,32.10
2022-08-07T13:35:21.464Z,32.10
2022-08-07T13:37:58.939Z,31.91
2022-08-07T13:40:35.061Z,31.99
2022-08-07T13:43:15.241Z,31.90
2022-08-07T13:46:11.859Z,31.99
2022-08-07T13:48:35.053Z,32.15
2022-08-07T13:51:27.675Z,31.95
2022-08-07T13:54:03.288Z,32.15
2022-08-07T13:56:41.249Z,32.25
2022-08-07T13:59:25.751Z,32.27
2022-08-07T14:02:12.926Z,32.47
2022-08-07T14:04:49.442Z,32.64
2022-08-07T14:07:23.634Z,32.82
2022-08-07T14:10:17.347Z,32.45
2022-08-07T14:12:54.880Z,32.66
2022-08-07T14:15:43.509Z,32.60
2022-08-07T14:18:28.337Z,32.30
2022-08-07T14:22:02.553Z,32.40
2022-08-07T14:24:10.800Z,32.55
2022-08-07T14:26:50.491Z,32.13
2022-08-07T14:30:05.897Z,32.21
2022-08-07T14:32:15.182Z,32.37
2022-08-07T14:34:46.411Z,32.56
2022-08-07T14:37:18.657Z,32.54
2022-08-07T14:40:18.044Z,32.49
2022-08-07T14:43:00.955Z,32.35
2022-08-07T14:48:27.640Z,32.67
2022-08-07T14:51:00.079Z,32.52
2022-08-07T14:54:05.839Z,32.88
2022-08-07T14:56:29.819Z,32.80
2022-08-07T14:59:13.661Z,32.53
2022-08-07T15:01:53.462Z,32.23
2022-08-07T15:04:26.293Z,32.27
2022-08-07T15:06:57.448Z,32.89
2022-08-07T15:09:47.125Z,33.04
2022-08-07T15:12:26.165Z,33.20
2022-08-07T15:15:09.255Z,33.00
2022-08-07T15:17:58.909Z,33.06
2022-08-07T15:20:54.932Z,32.62
2022-08-07T15:25:02.790Z,33.10
2022-08-07T15:26:22.504Z,32.96
2022-08-07T15:30:03.681Z,33.06
2022-08-07T15:32:01.696Z,33.12
2022-08-07T15:34:50.206Z,33.12
2022-08-07T15:37:27.819Z,32.91
2022-08-07T15:39:59.002Z,33.10
2022-08-07T15:45:55.683Z,32.64
2022-08-07T15:48:30.558Z,32.50
2022-08-07T15:51:08.609Z,32.59
2022-08-07T15:53:52.719Z,32.77
2022-08-07T15:56:34.936Z,32.74
2022-08-07T15:59:16.270Z,32.63
2022-08-07T16:02:02.258Z,32.54
2022-08-07T16:04:32.412Z,32.69
2022-08-07T16:07:04.607Z,31.76
2022-08-07T16:09:41.881Z,32.31
2022-08-07T16:12:28.771Z,32.29
2022-08-07T16:15:06.930Z,32.24
2022-08-07T16:18:00.749Z,32.17
2022-08-07T16:22:01.606Z,31.46
2022-08-07T16:24:33.718Z,31.70
2022-08-07T16:27:18.223Z,31.71
2022-08-07T16:30:30.533Z,31.66
2022-08-07T16:32:59.762Z,31.77
2022-08-07T16:35:52.324Z,31.20
2022-08-07T16:39:01.048Z,31.19
2022-08-07T16:42:00.519Z,31.41
2022-08-07T16:45:19.298Z,31.59
2022-08-07T16:48:28.427Z,31.41
2022-08-07T16:51:54.076Z,31.60
2022-08-07T16:54:55.487Z,31.48
2022-08-07T16:58:02.034Z,30.88
2022-08-07T17:00:41.122Z,31.04
2022-08-07T17:03:17.132Z,31.37
2022-08-07T17:06:29.333Z,31.20
2022-08-07T17:09:14.017Z,31.02
2022-08-07T17:12:04.815Z,31.36
2022-08-07T17:14:36.511Z,31.01
2022-08-07T17:17:09.994Z,31.14
2022-08-07T17:20:02.332Z,31.25
2022-08-07T17:22:46.241Z,31.30
2022-08-07T17:25:20.094Z,31.40
2022-08-07T17:28:14.162Z,31.66
2022-08-07T17:30:59.118Z,31.77
2022-08-07T17:34:08.989Z,31.71
2022-08-07T17:36:26.150Z,31.73
2022-08-07T17:38:59.807Z,31.73
2022-08-07T17:42:04.732Z,31.82
2022-08-07T17:44:55.808Z,31.67
2022-08-07T17:47:42.447Z,31.86
2022-08-07T17:50:31.123Z,31.86
2022-08-07T17:53:09.100Z,31.81
2022-08-07T17:56:26.139Z,31.83
2022-08-07T17:58:56.882Z,31.81
2022-08-07T18:01:36.831Z,31.80
2022-08-07T18:04:34.517Z,31.82
2022-08-07T18:07:22.514Z,31.83
2022-08-07T18:10:31.937Z,31.81
2022-08-07T18:13:00.675Z,31.78
2022-08-07T18:15:32.878Z,31.76
2022-08-07T18:18:46.177Z,31.72
2022-08-07T18:21:41.365Z,31.66
2022-08-07T18:24:33.759Z,31.65
2022-08-07T18:27:40.262Z,31.41
2022-08-07T18:30:30.833Z,31.42
2022-08-07T18:33:16.638Z,31.19
2022-08-07T18:36:03.454Z,30.70
2022-08-07T18:38:59.651Z,30.70
2022-08-07T18:41:45.475Z,30.99
2022-08-07T18:45:43.006Z,30.97
2022-08-07T18:50:05.355Z,30.63
2022-08-07T18:52:34.997Z,30.67
2022-08-07T18:54:27.854Z,30.56
2022-08-07T18:57:58.725Z,30.06
2022-08-07T19:00:55.126Z,30.02
2022-08-07T19:03:38.845Z,30.13
2022-08-07T19:06:33.722Z,30.20
2022-08-07T19:09:57.717Z,29.91
2022-08-07T19:12:27.126Z,29.89
2022-08-07T19:16:05.929Z,30.09
2022-08-07T19:18:34.449Z,30.12
2022-08-07T19:21:14.546Z,30.10
2022-08-07T19:24:00.367Z,30.10
2022-08-07T19:27:09.509Z,30.15
2022-08-07T19:31:00.764Z,30.01
2022-08-07T19:32:39.466Z,29.86
2022-08-07T19:35:33.032Z,29.55
2022-08-07T19:38:16.664Z,29.42
2022-08-07T19:40:49.704Z,29.62
2022-08-07T19:43:49.000Z,29.39
2022-08-07T19:46:14.541Z,29.37
2022-08-07T19:48:53.648Z,29.67
2022-08-07T19:51:52.812Z,29.78
2022-08-07T19:54:33.484Z,29.78
2022-08-07T19:58:03.205Z,29.87
2022-08-07T20:00:08.806Z,29.96
2022-08-07T20:02:52.179Z,29.67
2022-08-07T20:05:30.413Z,29.62
2022-08-07T20:08:25.273Z,29.81
2022-08-07T20:11:03.716Z,29.80
2022-08-07T20:13:42.595Z,29.80
2022-08-07T20:16:15.850Z,29.60
2022-08-07T20:19:02.287Z,29.65
2022-08-07T20:21:42.160Z,29.61
2022-08-07T20:24:28.666Z,29.58
2022-08-07T20:27:03.079Z,29.37
2022-08-07T20:29:48.274Z,29.36
2022-08-07T20:32:25.446Z,29.27
2022-08-07T20:34:54.812Z,29.42
2022-08-07T20:37:29.480Z,29.44
2022-08-07T20:40:03.913Z,29.41
2022-08-07T20:42:33.657Z,29.53
2022-08-07T20:45:04.359Z,29.65
2022-08-07T20:47:56.349Z,29.47
2022-08-07T20:50:28.974Z,29.46
2022-08-07T20:52:58.816Z,29.54
2022-08-07T20:55:32.186Z,29.44
2022-08-07T20:58:12.048Z,29.49
2022-08-07T21:00:53.961Z,29.59
2022-08-07T21:03:23.038Z,29.55
2022-08-07T21:05:57.066Z,29.29
2022-08-07T21:08:38.068Z,29.22
2022-08-07T21:11:14.601Z,29.43
2022-08-07T21:14:16.881Z,29.36
2022-08-07T21:16:55.874Z,29.27
2022-08-07T21:19:32.378Z,29.30
2022-08-07T21:22:19.361Z,29.25
2022-08-07T21:25:12.343Z,29.28
2022-08-07T21:27:53.737Z,29.22
2022-08-07T21:30:30.142Z,29.17
2022-08-07T21:33:09.317Z,29.11
2022-08-07T21:36:05.202Z,28.75
2022-08-07T21:38:49.928Z,28.71
2022-08-07T21:41:37.804Z,28.56
2022-08-07T21:44:39.870Z,28.60
2022-08-07T21:47:16.259Z,28.51
2022-08-07T21:50:05.341Z,28.34
2022-08-07T21:52:54.580Z,28.30
2022-08-07T21:55:31.037Z,28.25
2022-08-07T21:58:06.785Z,28.16
2022-08-07T22:00:38.085Z,27.88
2022-08-07T22:03:30.807Z,28.04
2022-08-07T22:06:06.421Z,27.91
2022-08-07T22:08:39.716Z,27.67
2022-08-07T22:11:11.240Z,28.00
2022-08-07T22:13:50.215Z,27.73
2022-08-07T22:16:39.738Z,27.81
2022-08-07T22:19:23.598Z,27.82
2022-08-07T22:22:17.786Z,28.05
2022-08-07T22:24:54.655Z,27.98
2022-08-07T22:28:08.320Z,28.02
2022-08-07T22:30:52.948Z,28.06
2022-08-07T22:33:53.680Z,27.97
2022-08-07T22:36:59.656Z,28.00
2022-08-07T22:39:52.530Z,28.04
2022-08-07T22:42:25.580Z,27.87
2022-08-07T22:46:04.566Z,27.72
2022-08-07T22:49:00.460Z,27.95
2022-08-07T22:51:49.242Z,28.10
2022-08-07T22:54:48.965Z,27.98
2022-08-07T22:57:48.588Z,28.03
2022-08-07T23:00:28.184Z,28.06
2022-08-07T23:03:18.381Z,28.15
2022-08-07T23:06:37.629Z,28.12
2022-08-07T23:10:04.645Z,28.07
2022-08-07T23:12:34.027Z,28.04
2022-08-07T23:16:04.547Z,27.83
2022-08-07T23:18:14.014Z,27.78
2022-08-07T23:21:10.560Z,27.83
2022-08-07T23:24:11.442Z,27.67
2022-08-07T23:27:33.910Z,27.54
2022-08-07T23:30:35.756Z,27.49
2022-08-07T23:34:21.777Z,27.48
2022-08-07T23:36:28.979Z,27.44
2022-08-07T23:39:14.452Z,27.26
2022-08-07T23:42:04.672Z,27.02
2022-08-07T23:44:51.463Z,26.88
2022-08-07T23:47:46.579Z,26.85
2022-08-07T23:50:41.869Z,26.74
2022-08-07T23:53:21.321Z,26.62
2022-08-07T23:56:12.118Z,26.59
2022-08-07T23:59:10.330Z,26.38
